createdAt,value
2023-03-19T00:00:54.523Z,8.64
2023-03-19T00:01:58.405Z,10.68
2023-03-19T00:03:02.084Z,10.85
2023-03-19T00:04:05.577Z,10.91
2023-03-19T00:05:08.756Z,9.32
2023-03-19T00:06:12.459Z,9.02
2023-03-19T00:07:15.846Z,10.58
2023-03-19T00:08:19.128Z,9.94
2023-03-19T00:09:22.122Z,11.05
2023-03-19T00:10:25.091Z,9.74
2023-03-19T00:11:28.184Z,12.70
2023-03-19T00:12:30.954Z,8.50
2023-03-19T00:13:33.821Z,9.66
2023-03-19T00:14:36.711Z,10.40
2023-03-19T00:15:39.673Z,8.16
2023-03-19T00:16:42.883Z,10.60
2023-03-19T00:17:46.136Z,12.09
2023-03-19T00:18:49.556Z,8.17
2023-03-19T00:19:52.895Z,9.74
2023-03-19T00:20:55.901Z,8.29
2023-03-19T00:21:58.829Z,8.95
2023-03-19T00:23:02.336Z,10.13
2023-03-19T00:24:05.324Z,8.94
2023-03-19T00:25:08.620Z,9.64
2023-03-19T00:26:11.792Z,9.58
2023-03-19T00:27:15.383Z,9.85
2023-03-19T00:28:18.359Z,8.96
2023-03-19T00:29:21.436Z,9.92
2023-03-19T00:30:24.543Z,9.92
2023-03-19T00:31:27.493Z,9.76
2023-03-19T00:32:30.719Z,8.12
2023-03-19T00:33:33.547Z,11.30
2023-03-19T00:34:36.633Z,8.83
2023-03-19T00:35:39.549Z,8.44
2023-03-19T00:36:42.285Z,8.97
2023-03-19T00:37:45.574Z,8.23
2023-03-19T00:38:48.442Z,11.76
2023-03-19T00:39:51.236Z,9.19
2023-03-19T00:40:54.281Z,7.38
2023-03-19T00:41:56.977Z,10.40
2023-03-19T00:43:00.244Z,8.89
2023-03-19T00:44:03.110Z,10.08
2023-03-19T00:45:06.399Z,11.67
2023-03-19T00:46:09.542Z,15.89
2023-03-19T00:47:12.171Z,14.53
2023-03-19T00:48:15.226Z,15.21
2023-03-19T00:49:17.819Z,14.77
2023-03-19T00:50:20.772Z,12.81
2023-03-19T00:51:23.663Z,11.41
2023-03-19T00:52:26.617Z,17.11
2023-03-19T00:53:29.204Z,16.72
2023-03-19T00:54:32.304Z,16.30
2023-03-19T00:55:35.443Z,15.02
2023-03-19T00:56:38.426Z,15.10
2023-03-19T00:57:41.325Z,17.67
2023-03-19T00:58:44.197Z,15.38
2023-03-19T00:59:47.067Z,17.25
2023-03-19T01:00:50.031Z,12.59
2023-03-19T01:01:53.209Z,15.04
2023-03-19T01:02:56.389Z,16.05
2023-03-19T01:03:59.595Z,15.28
2023-03-19T01:05:02.653Z,16.17
2023-03-19T01:06:05.558Z,15.01
2023-03-19T01:07:08.419Z,19.10
2023-03-19T01:08:11.194Z,16.95
2023-03-19T01:09:14.173Z,13.69
2023-03-19T01:10:17.219Z,13.00
2023-03-19T01:11:20.414Z,16.39
2023-03-19T01:12:23.585Z,18.88
2023-03-19T01:13:26.868Z,13.78
2023-03-19T01:14:33.121Z,10.83
2023-03-19T01:15:36.611Z,11.16
2023-03-19T01:16:39.616Z,11.19
2023-03-19T01:17:42.581Z,14.32
2023-03-19T01:18:48.325Z,12.42
2023-03-19T01:19:51.094Z,15.49
2023-03-19T01:20:53.954Z,12.93
2023-03-19T01:21:56.836Z,14.92
2023-03-19T01:22:59.633Z,13.44
2023-03-19T01:24:02.300Z,12.85
2023-03-19T01:25:04.860Z,13.52
2023-03-19T01:26:07.425Z,12.29
2023-03-19T01:27:10.183Z,13.28
2023-03-19T01:28:12.952Z,15.27
2023-03-19T01:29:15.934Z,14.74
2023-03-19T01:30:19.419Z,14.43
2023-03-19T01:31:22.673Z,14.32
2023-03-19T01:32:25.887Z,12.70
2023-03-19T01:33:29.075Z,12.95
2023-03-19T01:34:32.346Z,15.12
2023-03-19T01:35:35.450Z,17.26
2023-03-19T01:36:38.333Z,11.92
2023-03-19T01:37:41.217Z,12.96
2023-03-19T01:38:44.161Z,14.36
2023-03-19T01:39:47.573Z,12.13
2023-03-19T01:40:50.453Z,14.14
2023-03-19T01:41:53.413Z,12.60
2023-03-19T01:42:56.407Z,12.38
2023-03-19T01:43:59.555Z,11.48
2023-03-19T01:45:02.832Z,16.68
2023-03-19T01:46:06.070Z,13.45
2023-03-19T01:47:09.196Z,12.61
2023-03-19T01:48:12.483Z,14.20
2023-03-19T01:49:15.585Z,13.34
2023-03-19T01:50:18.456Z,15.75
2023-03-19T01:51:21.864Z,18.67
2023-03-19T01:52:24.618Z,13.37
2023-03-19T01:53:27.288Z,14.75
2023-03-19T01:54:30.243Z,15.52
2023-03-19T01:55:33.238Z,15.93
2023-03-19T01:56:36.602Z,14.38
2023-03-19T01:57:39.603Z,13.51
2023-03-19T01:58:42.490Z,14.34
2023-03-19T01:59:45.050Z,13.83
2023-03-19T02:00:47.918Z,11.40
2023-03-19T02:01:50.964Z,12.47
2023-03-19T02:02:53.890Z,12.62
2023-03-19T02:03:56.827Z,10.58
2023-03-19T02:04:59.824Z,11.89
2023-03-19T02:06:02.912Z,12.61
2023-03-19T02:07:05.984Z,14.32
2023-03-19T02:08:08.757Z,14.78
2023-03-19T02:09:11.536Z,12.31
2023-03-19T02:10:14.409Z,11.55
2023-03-19T02:11:17.735Z,12.07
2023-03-19T02:12:20.950Z,12.02
2023-03-19T02:13:24.143Z,12.88
2023-03-19T02:14:26.905Z,11.35
2023-03-19T02:15:29.503Z,11.76
2023-03-19T02:16:32.331Z,14.24
2023-03-19T02:17:35.120Z,12.82
2023-03-19T02:18:37.644Z,13.16
2023-03-19T02:19:40.301Z,13.15
2023-03-19T02:20:43.037Z,11.90
2023-03-19T02:21:45.805Z,12.81
2023-03-19T02:22:48.983Z,12.76
2023-03-19T02:23:51.687Z,11.64
2023-03-19T02:24:54.241Z,12.16
2023-03-19T02:25:57.020Z,16.12
2023-03-19T02:27:00.117Z,11.02
2023-03-19T02:28:03.079Z,13.25
2023-03-19T02:29:05.844Z,11.95
2023-03-19T02:30:08.899Z,13.21
2023-03-19T02:31:11.699Z,11.48
2023-03-19T02:32:14.544Z,13.79
2023-03-19T02:33:17.857Z,14.25
2023-03-19T02:34:20.909Z,12.79
2023-03-19T02:35:23.885Z,11.18
2023-03-19T02:36:26.783Z,13.36
2023-03-19T02:37:32.907Z,15.58
2023-03-19T02:38:34.374Z,14.01
2023-03-19T02:39:37.343Z,13.68
2023-03-19T02:40:40.231Z,14.20
2023-03-19T02:41:43.280Z,13.38
2023-03-19T02:42:46.260Z,11.29
2023-03-19T02:43:49.449Z,13.01
2023-03-19T02:44:52.445Z,13.80
2023-03-19T02:45:55.402Z,13.62
2023-03-19T02:46:58.205Z,15.33
2023-03-19T02:48:00.869Z,14.67
2023-03-19T02:49:04.013Z,13.81
2023-03-19T02:50:07.121Z,14.17
2023-03-19T02:51:10.181Z,13.85
2023-03-19T02:52:13.136Z,12.62
2023-03-19T02:53:15.982Z,13.87
2023-03-19T02:54:18.797Z,15.35
2023-03-19T02:55:21.789Z,15.17
2023-03-19T02:56:24.650Z,16.62
2023-03-19T02:57:27.768Z,16.28
2023-03-19T02:58:30.932Z,13.98
2023-03-19T02:59:33.900Z,14.65
2023-03-19T03:00:36.739Z,14.02
2023-03-19T03:01:39.957Z,17.59
2023-03-19T03:02:42.744Z,14.92
2023-03-19T03:03:45.799Z,14.06
2023-03-19T03:04:49.016Z,14.88
2023-03-19T03:05:51.786Z,14.19
2023-03-19T03:06:54.460Z,16.23
2023-03-19T03:07:57.227Z,17.01
2023-03-19T03:08:59.896Z,13.74
2023-03-19T03:10:02.669Z,14.63
2023-03-19T03:11:05.236Z,13.85
2023-03-19T03:12:07.907Z,12.78
2023-03-19T03:13:10.586Z,12.79
2023-03-19T03:14:13.528Z,13.03
2023-03-19T03:15:16.358Z,14.31
2023-03-19T03:16:19.348Z,12.54
2023-03-19T03:17:22.069Z,12.94
2023-03-19T03:18:25.277Z,13.70
2023-03-19T03:19:28.003Z,14.25
2023-03-19T03:20:30.887Z,15.00
2023-03-19T03:21:35.548Z,13.33
2023-03-19T03:22:38.369Z,12.66
2023-03-19T03:23:41.456Z,13.29
2023-03-19T03:24:44.232Z,11.60
2023-03-19T03:25:47.403Z,13.22
2023-03-19T03:26:50.480Z,13.51
2023-03-19T03:27:53.564Z,13.43
2023-03-19T03:28:56.541Z,12.06
2023-03-19T03:29:59.623Z,13.42
2023-03-19T03:31:03.016Z,13.70
2023-03-19T03:32:05.995Z,13.17
2023-03-19T03:33:08.820Z,15.24
2023-03-19T03:34:11.565Z,12.87
2023-03-19T03:35:14.511Z,12.07
2023-03-19T03:36:17.707Z,14.32
2023-03-19T03:37:20.666Z,12.19
2023-03-19T03:38:24.052Z,14.18
2023-03-19T03:39:27.146Z,14.32
2023-03-19T03:40:30.212Z,13.46
2023-03-19T03:41:33.388Z,13.75
2023-03-19T03:42:36.466Z,15.32
2023-03-19T03:43:39.348Z,12.32
2023-03-19T03:44:42.014Z,13.63
2023-03-19T03:45:44.736Z,14.92
2023-03-19T03:46:47.663Z,11.61
2023-03-19T03:47:50.435Z,12.44
2023-03-19T03:48:53.209Z,11.54
2023-03-19T03:49:56.302Z,12.23
2023-03-19T03:50:59.376Z,11.00
2023-03-19T03:52:02.349Z,12.17
2023-03-19T03:53:05.118Z,13.26
2023-03-19T03:54:08.507Z,11.85
2023-03-19T03:55:11.792Z,11.25
2023-03-19T03:56:14.672Z,10.82
2023-03-19T03:57:17.745Z,11.18
2023-03-19T03:58:20.633Z,12.97
2023-03-19T03:59:23.488Z,12.18
2023-03-19T04:00:26.474Z,12.58
2023-03-19T04:01:29.343Z,14.32
2023-03-19T04:02:32.359Z,11.62
2023-03-19T04:03:40.890Z,12.50
2023-03-19T04:04:43.702Z,11.88
2023-03-19T04:05:46.489Z,10.08
2023-03-19T04:06:49.268Z,10.94
2023-03-19T04:07:52.636Z,9.10
2023-03-19T04:08:55.307Z,9.87
2023-03-19T04:09:58.184Z,11.42
2023-03-19T04:11:00.844Z,12.48
2023-03-19T04:12:03.618Z,11.64
2023-03-19T04:13:06.595Z,10.31
2023-03-19T04:14:09.377Z,10.78
2023-03-19T04:15:12.250Z,12.11
2023-03-19T04:16:15.067Z,10.80
2023-03-19T04:17:17.789Z,11.47
2023-03-19T04:18:20.770Z,11.67
2023-03-19T04:19:23.535Z,11.52
2023-03-19T04:20:26.202Z,12.08
2023-03-19T04:21:29.185Z,11.63
2023-03-19T04:22:32.060Z,10.73
2023-03-19T04:23:35.041Z,9.33
2023-03-19T04:24:37.739Z,10.71
2023-03-19T04:25:40.475Z,12.07
2023-03-19T04:26:43.144Z,13.44
2023-03-19T04:27:45.847Z,10.79
2023-03-19T04:28:50.664Z,11.78
2023-03-19T04:29:53.417Z,11.60
2023-03-19T04:30:56.349Z,12.38
2023-03-19T04:31:59.059Z,14.61
2023-03-19T04:33:01.753Z,13.96
2023-03-19T04:34:04.497Z,12.34
2023-03-19T04:35:07.271Z,13.13
2023-03-19T04:36:09.937Z,11.91
2023-03-19T04:37:12.913Z,11.78
2023-03-19T04:38:16.096Z,13.26
2023-03-19T04:39:19.392Z,11.28
2023-03-19T04:40:22.375Z,10.90
2023-03-19T04:41:25.436Z,13.19
2023-03-19T04:42:28.317Z,13.00
2023-03-19T04:43:31.410Z,13.68
2023-03-19T04:44:34.681Z,9.80
2023-03-19T04:45:37.350Z,13.22
2023-03-19T04:46:40.423Z,13.52
2023-03-19T04:47:43.094Z,12.93
2023-03-19T04:48:45.867Z,12.66
2023-03-19T04:49:51.115Z,11.78
2023-03-19T04:50:54.085Z,11.13
2023-03-19T04:53:12.930Z,11.96
2023-03-19T04:54:15.701Z,14.07
2023-03-19T04:55:18.615Z,16.43
2023-03-19T04:56:21.348Z,11.32
2023-03-19T04:57:24.024Z,13.66
2023-03-19T04:58:26.819Z,13.37
2023-03-19T04:59:29.461Z,13.61
2023-03-19T05:00:32.795Z,9.76
2023-03-19T05:01:35.777Z,13.38
2023-03-19T05:02:38.596Z,14.29
2023-03-19T05:03:41.530Z,11.80
2023-03-19T05:04:44.253Z,12.18
2023-03-19T05:05:47.023Z,12.52
2023-03-19T05:06:49.790Z,12.67
2023-03-19T05:07:52.456Z,11.93
2023-03-19T05:08:55.127Z,13.27
2023-03-19T05:09:57.898Z,14.30
2023-03-19T05:11:00.980Z,13.89
2023-03-19T05:12:03.966Z,12.40
2023-03-19T05:13:06.633Z,10.97
2023-03-19T05:14:09.604Z,13.25
2023-03-19T05:15:12.478Z,16.00
2023-03-19T05:16:15.848Z,12.18
2023-03-19T05:17:18.737Z,14.56
2023-03-19T05:18:21.831Z,14.39
2023-03-19T05:19:24.903Z,12.89
2023-03-19T05:20:27.876Z,15.28
2023-03-19T05:21:31.156Z,14.58
2023-03-19T05:22:34.257Z,10.93
2023-03-19T05:23:36.907Z,11.78
2023-03-19T05:24:39.581Z,12.08
2023-03-19T05:25:42.349Z,13.24
2023-03-19T05:26:45.429Z,13.88
2023-03-19T05:27:48.203Z,15.77
2023-03-19T05:28:50.976Z,12.95
2023-03-19T05:29:53.853Z,12.63
2023-03-19T05:30:56.671Z,13.58
2023-03-19T05:31:59.614Z,16.57
2023-03-19T05:33:02.472Z,13.98
2023-03-19T05:34:05.242Z,13.41
2023-03-19T05:35:08.324Z,13.04
2023-03-19T05:36:11.100Z,12.68
2023-03-19T05:37:14.588Z,14.12
2023-03-19T05:38:17.779Z,13.58
2023-03-19T05:39:20.844Z,12.28
2023-03-19T05:40:23.826Z,12.78
2023-03-19T05:41:27.008Z,11.34
2023-03-19T05:42:29.790Z,12.94
2023-03-19T05:43:32.752Z,11.01
2023-03-19T05:44:35.734Z,8.92
2023-03-19T05:45:38.401Z,12.20
2023-03-19T05:46:41.205Z,9.06
2023-03-19T05:47:43.842Z,10.16
2023-03-19T05:48:46.640Z,11.25
2023-03-19T05:49:49.282Z,15.13
2023-03-19T05:50:52.053Z,12.67
2023-03-19T05:51:54.726Z,9.62
2023-03-19T05:52:57.501Z,14.04
2023-03-19T05:54:00.278Z,14.18
2023-03-19T05:55:03.352Z,11.02
2023-03-19T05:56:06.430Z,12.33
2023-03-19T05:57:09.513Z,11.30
2023-03-19T05:58:12.531Z,11.84
2023-03-19T05:59:15.177Z,10.91
2023-03-19T06:00:17.929Z,12.61
2023-03-19T06:01:21.154Z,13.21
2023-03-19T06:02:24.133Z,13.36
2023-03-19T06:03:27.066Z,12.01
2023-03-19T06:04:30.148Z,11.40
2023-03-19T06:05:33.119Z,11.72
2023-03-19T06:06:36.201Z,12.08
2023-03-19T06:07:39.156Z,13.13
2023-03-19T06:08:42.052Z,10.34
2023-03-19T06:09:45.130Z,12.91
2023-03-19T06:10:48.211Z,12.92
2023-03-19T06:11:51.189Z,14.21
2023-03-19T06:12:54.079Z,14.58
2023-03-19T06:13:57.042Z,11.25
2023-03-19T06:14:59.808Z,12.20
2023-03-19T06:16:02.617Z,14.24
2023-03-19T06:17:05.675Z,13.50
2023-03-19T06:18:08.543Z,13.72
2023-03-19T06:19:11.615Z,11.53
2023-03-19T06:20:14.288Z,11.28
2023-03-19T06:21:17.371Z,13.68
2023-03-19T06:22:21.364Z,17.45
2023-03-19T06:23:24.137Z,13.19
2023-03-19T06:24:27.113Z,14.31
2023-03-19T06:25:30.090Z,14.26
2023-03-19T06:26:33.076Z,15.60
2023-03-19T06:27:35.947Z,13.44
2023-03-19T06:28:39.125Z,13.09
2023-03-19T06:29:42.115Z,12.16
2023-03-19T06:30:44.773Z,12.02
2023-03-19T06:31:47.671Z,12.77
2023-03-19T06:32:50.308Z,13.78
2023-03-19T06:33:53.087Z,14.63
2023-03-19T06:34:56.189Z,15.02
2023-03-19T06:35:59.028Z,14.95
2023-03-19T06:37:01.819Z,16.53
2023-03-19T06:38:04.592Z,16.10
2023-03-19T06:39:07.263Z,17.02
2023-03-19T06:40:10.450Z,12.24
2023-03-19T06:41:13.419Z,15.74
2023-03-19T06:42:16.162Z,15.09
2023-03-19T06:43:19.170Z,12.29
2023-03-19T06:44:22.278Z,14.92
2023-03-19T06:45:25.436Z,14.50
2023-03-19T06:46:28.409Z,10.79
2023-03-19T06:47:31.387Z,13.38
2023-03-19T06:48:34.466Z,15.72
2023-03-19T06:49:37.347Z,13.28
2023-03-19T06:50:40.932Z,12.82
2023-03-19T06:51:43.825Z,11.66
2023-03-19T06:52:46.781Z,13.51
2023-03-19T06:53:49.693Z,13.62
2023-03-19T06:54:52.539Z,13.65
2023-03-19T06:55:55.415Z,14.93
2023-03-19T06:56:58.385Z,11.31
2023-03-19T06:58:01.394Z,11.10
2023-03-19T06:59:04.339Z,12.95
2023-03-19T07:00:07.428Z,13.53
2023-03-19T07:01:10.591Z,11.63
2023-03-19T07:02:13.472Z,12.52
2023-03-19T07:03:16.346Z,12.83
2023-03-19T07:04:19.431Z,12.93
2023-03-19T07:05:22.097Z,11.02
2023-03-19T07:06:25.381Z,13.06
2023-03-19T07:07:28.366Z,11.89
2023-03-19T07:08:31.333Z,13.15
2023-03-19T07:09:34.316Z,11.56
2023-03-19T07:10:37.326Z,13.61
2023-03-19T07:11:40.676Z,13.35
2023-03-19T07:12:43.664Z,14.84
2023-03-19T07:13:46.469Z,12.38
2023-03-19T07:14:49.302Z,13.24
2023-03-19T07:15:52.180Z,12.28
2023-03-19T07:16:55.257Z,12.06
2023-03-19T07:17:58.231Z,15.66
2023-03-19T07:19:04.388Z,14.47
2023-03-19T07:20:07.459Z,12.41
2023-03-19T07:21:10.336Z,13.46
2023-03-19T07:22:13.412Z,12.04
2023-03-19T07:23:16.399Z,13.17
2023-03-19T07:24:19.478Z,12.40
2023-03-19T07:25:23.502Z,14.76
2023-03-19T07:26:27.471Z,13.51
2023-03-19T07:27:30.447Z,14.82
2023-03-19T07:28:33.125Z,16.71
2023-03-19T07:29:35.889Z,13.47
2023-03-19T07:30:38.667Z,12.98
2023-03-19T07:31:41.500Z,15.98
2023-03-19T07:32:44.368Z,13.83
2023-03-19T07:33:47.085Z,12.92
2023-03-19T07:34:49.856Z,15.14
2023-03-19T07:35:52.694Z,13.76
2023-03-19T07:36:55.407Z,13.53
2023-03-19T07:37:58.176Z,13.15
2023-03-19T07:39:01.046Z,15.16
2023-03-19T07:40:03.718Z,14.52
2023-03-19T07:41:06.487Z,17.32
2023-03-19T07:42:09.262Z,20.00
2023-03-19T07:43:12.138Z,19.46
2023-03-19T07:44:14.799Z,19.29
2023-03-19T07:45:17.481Z,18.51
2023-03-19T07:46:20.300Z,21.11
2023-03-19T07:47:29.009Z,22.57
2023-03-19T07:48:27.347Z,23.08
2023-03-19T07:49:30.105Z,21.38
2023-03-19T07:50:33.192Z,21.95
2023-03-19T07:51:36.057Z,21.49
2023-03-19T07:52:39.161Z,24.75
2023-03-19T07:53:42.414Z,23.41
2023-03-19T07:54:45.396Z,22.79
2023-03-19T07:55:48.395Z,26.44
2023-03-19T07:56:51.451Z,24.83
2023-03-19T07:57:54.433Z,23.16
2023-03-19T07:58:57.816Z,22.34
2023-03-19T08:00:00.789Z,26.18
2023-03-19T08:01:03.772Z,22.51
2023-03-19T08:02:06.868Z,23.20
2023-03-19T08:03:09.935Z,20.51
2023-03-19T08:04:12.940Z,21.68
2023-03-19T08:05:15.783Z,25.02
2023-03-19T08:06:18.861Z,30.78
2023-03-19T08:07:21.833Z,23.28
2023-03-19T08:08:24.914Z,23.62
2023-03-19T08:09:28.407Z,25.76
2023-03-19T08:10:31.279Z,25.78
2023-03-19T08:11:34.355Z,24.44
2023-03-19T08:12:37.331Z,24.92
2023-03-19T08:13:40.004Z,25.48
2023-03-19T08:14:43.094Z,21.72
2023-03-19T08:15:45.852Z,24.09
2023-03-19T08:16:48.704Z,23.87
2023-03-19T08:17:51.397Z,21.95
2023-03-19T08:18:54.280Z,26.34
2023-03-19T08:19:57.255Z,23.18
2023-03-19T08:20:59.816Z,23.31
2023-03-19T08:22:02.587Z,23.83
2023-03-19T08:23:05.365Z,23.46
2023-03-19T08:24:08.134Z,23.68
2023-03-19T08:25:11.473Z,25.57
2023-03-19T08:26:16.857Z,24.68
2023-03-19T08:27:19.730Z,27.29
2023-03-19T08:28:22.705Z,26.75
2023-03-19T08:29:25.578Z,28.51
2023-03-19T08:30:29.080Z,28.49
2023-03-19T08:31:32.157Z,29.66
2023-03-19T08:32:35.358Z,28.50
2023-03-19T08:33:38.013Z,31.95
2023-03-19T08:34:40.981Z,30.33
2023-03-19T08:35:43.806Z,28.58
2023-03-19T08:36:46.831Z,32.07
2023-03-19T08:37:49.500Z,30.81
2023-03-19T08:38:52.373Z,32.47
2023-03-19T08:39:55.148Z,30.76
2023-03-19T08:40:57.711Z,31.43
2023-03-19T08:42:00.607Z,30.19
2023-03-19T08:43:03.274Z,30.32
2023-03-19T08:44:06.339Z,27.92
2023-03-19T08:45:09.211Z,29.73
2023-03-19T08:46:12.124Z,32.28
2023-03-19T08:47:15.036Z,27.67
2023-03-19T08:48:18.145Z,28.95
2023-03-19T08:49:21.017Z,30.86
2023-03-19T08:50:23.890Z,29.18
2023-03-19T08:51:26.766Z,29.17
2023-03-19T08:52:29.951Z,29.35
2023-03-19T08:53:33.025Z,27.89
2023-03-19T08:54:35.798Z,30.74
2023-03-19T08:55:38.467Z,28.11
2023-03-19T08:56:41.444Z,33.08
2023-03-19T08:57:44.423Z,28.96
2023-03-19T08:58:47.502Z,27.58
2023-03-19T08:59:50.284Z,27.72
2023-03-19T09:00:53.151Z,29.82
2023-03-19T09:01:55.932Z,30.72
2023-03-19T09:02:58.709Z,33.32
2023-03-19T09:04:01.259Z,32.46
2023-03-19T09:05:04.031Z,29.61
2023-03-19T09:06:06.602Z,32.21
2023-03-19T09:07:09.575Z,35.90
2023-03-19T09:08:12.246Z,29.98
2023-03-19T09:09:15.019Z,33.51
2023-03-19T09:10:18.120Z,32.72
2023-03-19T09:11:21.059Z,30.85
2023-03-19T09:12:23.957Z,31.37
2023-03-19T09:13:26.723Z,32.64
2023-03-19T09:14:29.493Z,30.56
2023-03-19T09:15:32.912Z,35.41
2023-03-19T09:16:35.668Z,35.09
2023-03-19T09:17:38.524Z,37.33
2023-03-19T09:18:41.196Z,38.46
2023-03-19T09:19:43.968Z,40.32
2023-03-19T09:20:46.560Z,35.23
2023-03-19T09:21:49.645Z,36.07
2023-03-19T09:22:52.387Z,36.04
2023-03-19T09:23:55.473Z,38.42
2023-03-19T09:24:58.239Z,38.75
2023-03-19T09:26:00.924Z,40.70
2023-03-19T09:27:03.585Z,39.32
2023-03-19T09:28:06.757Z,41.24
2023-03-19T09:29:09.534Z,41.76
2023-03-19T09:30:12.208Z,45.52
2023-03-19T09:31:14.901Z,49.99
2023-03-19T09:32:17.653Z,51.89
2023-03-19T09:33:20.833Z,59.28
2023-03-19T09:34:23.709Z,59.15
2023-03-19T09:35:26.473Z,59.24
2023-03-19T09:36:29.354Z,61.58
2023-03-19T09:37:32.232Z,67.98
2023-03-19T09:38:35.712Z,72.70
2023-03-19T09:39:38.391Z,74.13
2023-03-19T09:40:41.053Z,74.61
2023-03-19T09:41:43.933Z,79.15
2023-03-19T09:42:46.914Z,76.19
2023-03-19T09:43:49.778Z,74.44
2023-03-19T09:44:52.658Z,78.64
2023-03-19T09:45:55.438Z,77.38
2023-03-19T09:46:58.365Z,81.79
2023-03-19T09:48:01.488Z,73.94
2023-03-19T09:49:04.674Z,72.14
2023-03-19T09:50:07.643Z,77.02
2023-03-19T09:51:10.621Z,80.67
2023-03-19T09:52:13.495Z,81.52
2023-03-19T09:53:16.367Z,76.76
2023-03-19T09:54:19.165Z,77.81
2023-03-19T09:55:22.117Z,79.55
2023-03-19T09:56:24.999Z,84.19
2023-03-19T09:57:28.178Z,80.67
2023-03-19T09:58:31.162Z,81.38
2023-03-19T09:59:34.232Z,84.20
2023-03-19T10:00:37.325Z,83.71
2023-03-19T10:01:40.438Z,88.10
2023-03-19T10:02:43.500Z,83.78
2023-03-19T10:03:46.416Z,80.25
2023-03-19T10:04:49.143Z,73.92
2023-03-19T10:05:51.993Z,76.11
2023-03-19T10:06:54.780Z,78.05
2023-03-19T10:07:57.612Z,75.42
2023-03-19T10:09:00.326Z,76.74
2023-03-19T10:10:03.082Z,82.26
2023-03-19T10:11:05.756Z,72.98
2023-03-19T10:12:09.754Z,81.18
2023-03-19T10:13:12.317Z,77.24
2023-03-19T10:14:15.095Z,76.22
2023-03-19T10:15:17.674Z,71.21
2023-03-19T10:16:20.386Z,79.50
2023-03-19T10:17:22.998Z,73.26
2023-03-19T10:18:35.088Z,75.41
2023-03-19T10:19:40.539Z,77.84
2023-03-19T10:20:42.381Z,73.22
2023-03-19T10:21:45.247Z,78.52
2023-03-19T10:22:48.236Z,76.81
2023-03-19T10:23:51.098Z,72.50
2023-03-19T10:24:54.077Z,78.14
2023-03-19T10:27:07.001Z,76.75
2023-03-19T10:28:09.773Z,76.39
2023-03-19T10:30:20.549Z,75.61
2023-03-19T10:31:23.718Z,76.62
2023-03-19T10:33:42.882Z,73.12
2023-03-19T10:34:45.886Z,71.82
2023-03-19T10:35:48.856Z,81.45
2023-03-19T10:36:51.814Z,72.75
2023-03-19T10:37:54.688Z,80.74
2023-03-19T10:38:57.663Z,72.05
2023-03-19T10:40:00.649Z,76.15
2023-03-19T10:41:03.412Z,73.46
2023-03-19T10:42:06.394Z,77.09
2023-03-19T10:43:25.050Z,71.23
2023-03-19T10:44:28.021Z,68.17
2023-03-19T10:45:30.963Z,70.47
2023-03-19T10:46:33.867Z,75.73
2023-03-19T10:47:36.756Z,79.13
2023-03-19T10:48:39.511Z,74.33
2023-03-19T10:49:42.313Z,78.20
2023-03-19T10:50:45.160Z,72.04
2023-03-19T10:51:48.039Z,70.36
2023-03-19T10:52:50.909Z,69.05
2023-03-19T10:53:53.712Z,62.58
2023-03-19T10:54:56.558Z,61.58
2023-03-19T10:57:09.677Z,72.92
2023-03-19T10:58:12.560Z,69.52
2023-03-19T11:00:31.619Z,70.05
2023-03-19T11:01:34.756Z,70.92
2023-03-19T11:02:37.396Z,73.02
2023-03-19T11:03:40.290Z,72.76
2023-03-19T11:04:43.218Z,70.56
2023-03-19T11:05:46.393Z,73.55
2023-03-19T11:06:49.377Z,73.03
2023-03-19T11:07:52.360Z,69.61
2023-03-19T11:08:55.424Z,73.41
2023-03-19T11:11:14.795Z,69.73
2023-03-19T11:12:17.475Z,68.08
2023-03-19T11:13:20.137Z,73.40
2023-03-19T11:14:22.809Z,70.36
2023-03-19T11:15:25.484Z,75.73
2023-03-19T11:16:28.297Z,66.85
2023-03-19T11:18:47.306Z,67.54
2023-03-19T11:19:50.185Z,68.40
2023-03-19T11:20:53.053Z,62.32
2023-03-19T11:21:55.622Z,70.26
2023-03-19T11:22:58.193Z,71.03
2023-03-19T11:24:00.867Z,77.72
2023-03-19T11:26:19.423Z,72.30
2023-03-19T11:27:22.185Z,73.66
2023-03-19T11:28:26.367Z,75.44
2023-03-19T11:29:29.475Z,73.17
2023-03-19T11:30:32.446Z,74.49
2023-03-19T11:31:35.326Z,73.44
2023-03-19T11:33:54.806Z,78.61
2023-03-19T11:34:57.584Z,78.63
2023-03-19T11:36:00.288Z,84.83
2023-03-19T11:37:03.316Z,72.55
2023-03-19T11:38:05.979Z,76.92
2023-03-19T11:39:08.855Z,72.76
2023-03-19T11:40:11.631Z,71.25
2023-03-19T11:41:14.571Z,80.21
2023-03-19T11:42:17.480Z,77.19
2023-03-19T11:43:20.576Z,72.80
2023-03-19T11:44:23.437Z,80.46
2023-03-19T11:45:26.337Z,78.65
2023-03-19T11:46:29.335Z,75.62
2023-03-19T11:48:48.155Z,80.69
2023-03-19T11:49:51.023Z,83.97
2023-03-19T11:50:53.690Z,80.16
2023-03-19T11:51:56.567Z,62.88
2023-03-19T11:52:59.335Z,79.61
2023-03-19T11:54:02.325Z,81.02
2023-03-19T11:55:05.392Z,74.76
2023-03-19T11:56:08.192Z,73.36
2023-03-19T11:57:26.713Z,77.48
2023-03-19T11:58:29.393Z,68.95
2023-03-19T11:59:31.946Z,74.14
2023-03-19T12:00:34.717Z,75.31
2023-03-19T12:01:39.221Z,69.53
2023-03-19T12:02:41.937Z,76.15
2023-03-19T12:03:44.839Z,73.61
2023-03-19T12:04:47.958Z,73.39
2023-03-19T12:05:51.036Z,71.12
2023-03-19T12:06:53.820Z,75.41
2023-03-19T12:07:56.691Z,76.87
2023-03-19T12:08:59.461Z,75.54
2023-03-19T12:10:02.160Z,70.96
2023-03-19T12:11:04.922Z,68.53
2023-03-19T12:12:07.880Z,63.79
2023-03-19T12:14:26.898Z,69.40
2023-03-19T12:15:29.723Z,71.19
2023-03-19T12:16:32.580Z,80.73
2023-03-19T12:17:35.155Z,67.85
2023-03-19T12:18:37.819Z,64.38
2023-03-19T12:19:40.388Z,65.21
2023-03-19T12:20:43.072Z,79.50
2023-03-19T12:23:02.226Z,65.42
2023-03-19T12:24:04.932Z,65.52
2023-03-19T12:25:07.569Z,70.92
2023-03-19T12:26:10.234Z,69.92
2023-03-19T12:27:12.899Z,66.92
2023-03-19T12:28:15.580Z,74.80
2023-03-19T12:29:18.142Z,75.37
2023-03-19T12:30:20.706Z,71.94
2023-03-19T12:31:26.460Z,67.26
2023-03-19T12:32:29.115Z,71.00
2023-03-19T12:34:48.769Z,69.85
2023-03-19T12:35:51.591Z,68.49
2023-03-19T12:37:57.219Z,72.48
2023-03-19T12:38:59.875Z,72.59
2023-03-19T12:40:02.459Z,63.76
2023-03-19T12:41:05.254Z,65.00
2023-03-19T12:42:08.098Z,68.54
2023-03-19T12:44:27.158Z,64.14
2023-03-19T12:45:30.030Z,68.42
2023-03-19T12:46:32.694Z,71.95
2023-03-19T12:47:35.345Z,72.72
2023-03-19T12:48:38.243Z,76.79
2023-03-19T12:49:40.913Z,74.89
2023-03-19T12:50:43.805Z,73.03
2023-03-19T12:51:46.458Z,67.12
2023-03-19T12:52:49.541Z,71.33
2023-03-19T12:53:52.618Z,70.48
2023-03-19T12:54:55.393Z,72.61
2023-03-19T12:55:58.172Z,77.75
2023-03-19T12:57:00.831Z,72.75
2023-03-19T12:58:03.817Z,61.86
2023-03-19T12:59:06.578Z,73.89
2023-03-19T13:00:09.453Z,69.08
2023-03-19T13:01:12.437Z,71.45
2023-03-19T13:02:15.261Z,75.94
2023-03-19T13:03:18.088Z,65.77
2023-03-19T13:04:20.889Z,76.62
2023-03-19T13:05:23.730Z,73.18
2023-03-19T13:06:26.391Z,76.95
2023-03-19T13:07:29.070Z,72.27
2023-03-19T13:08:31.876Z,65.28
2023-03-19T13:09:34.621Z,66.89
2023-03-19T13:10:37.283Z,68.77
2023-03-19T13:11:39.960Z,67.27
2023-03-19T13:12:42.517Z,68.25
2023-03-19T13:13:45.292Z,65.83
2023-03-19T13:14:47.968Z,67.42
2023-03-19T13:15:50.758Z,64.01
2023-03-19T13:16:53.313Z,70.99
2023-03-19T13:17:56.182Z,73.07
2023-03-19T13:18:59.120Z,71.48
2023-03-19T13:20:02.036Z,75.22
2023-03-19T13:21:04.922Z,76.53
2023-03-19T13:22:07.669Z,67.18
2023-03-19T13:23:10.547Z,70.42
2023-03-19T13:24:13.423Z,68.10
2023-03-19T13:25:16.295Z,61.44
2023-03-19T13:26:18.976Z,75.62
2023-03-19T13:27:21.835Z,69.10
2023-03-19T13:28:24.712Z,70.44
2023-03-19T13:29:27.488Z,76.21
2023-03-19T13:30:30.365Z,72.62
2023-03-19T13:31:33.430Z,63.35
2023-03-19T13:32:36.406Z,71.02
2023-03-19T13:33:39.191Z,71.16
2023-03-19T13:34:41.959Z,68.75
2023-03-19T13:35:45.020Z,62.21
2023-03-19T13:36:47.812Z,62.87
2023-03-19T13:37:50.492Z,64.29
2023-03-19T13:38:53.488Z,67.44
2023-03-19T13:39:58.486Z,65.58
2023-03-19T13:41:00.569Z,65.41
2023-03-19T13:42:03.222Z,66.18
2023-03-19T13:43:09.158Z,64.64
2023-03-19T13:44:10.083Z,64.90
2023-03-19T13:45:12.969Z,69.42
2023-03-19T13:46:15.942Z,65.38
2023-03-19T13:47:18.712Z,70.15
2023-03-19T13:48:24.590Z,60.06
2023-03-19T13:49:25.490Z,65.23
2023-03-19T13:50:31.885Z,63.18
2023-03-19T13:52:50.937Z,69.84
2023-03-19T13:53:53.570Z,64.02